sensor_id;sensor_type;location;lat;lon;timestamp;pressure;altitude;pressure_sealevel;temperature;humidity
65897;BME280;52677;50.898;10.854;2023-04-20T00:00:34;98752.22;;;2.20;100.00
65897;BME280;52677;50.898;10.854;2023-04-20T00:02:34;98739.69;;;2.19;100.00
65897;BME280;52677;50.898;10.854;2023-04-20T00:04:35;98738.91;;;2.19;100.00
65897;BME280;52677;50.898;10.854;2023-04-20T00:06:36;98736.94;;;2.11;100.00
65897;BME280;52677;50.898;10.854;2023-04-20T00:08:36;98729.41;;;2.08;100.00
65897;BME280;52677;50.898;10.854;2023-04-20T00:10:36;98731.81;;;2.09;100.00
65897;BME280;52677;50.898;10.854;2023-04-20T00:12:37;98719.69;;;1.93;100.00
65897;BME280;52677;50.898;10.854;2023-04-20T00:14:37;98718.22;;;1.87;100.00
65897;BME280;52677;50.898;10.854;2023-04-20T00:16:37;98714.84;;;1.90;100.00
65897;BME280;52677;50.898;10.854;2023-04-20T00:18:38;98721.75;;;1.87;100.00
65897;BME280;52677;50.898;10.854;2023-04-20T00:20:39;98714.56;;;1.91;100.00
65897;BME280;52677;50.898;10.854;2023-04-20T00:22:39;98720.50;;;1.93;100.00
65897;BME280;52677;50.898;10.854;2023-04-20T00:24:40;98716.16;;;1.92;100.00
65897;BME280;52677;50.898;10.854;2023-04-20T00:26:40;98711.03;;;1.91;100.00
65897;BME280;52677;50.898;10.854;2023-04-20T00:28:40;98716.25;;;1.79;100.00
65897;BME280;52677;50.898;10.854;2023-04-20T00:30:41;98714.00;;;1.81;100.00
65897;BME280;52677;50.898;10.854;2023-04-20T00:32:41;98713.41;;;1.84;100.00
65897;BME280;52677;50.898;10.854;2023-04-20T00:34:41;98712.44;;;1.88;100.00
65897;BME280;52677;50.898;10.854;2023-04-20T00:36:42;98703.78;;;1.86;100.00
65897;BME280;52677;50.898;10.854;2023-04-20T00:38:43;98697.34;;;1.82;100.00
65897;BME280;52677;50.898;10.854;2023-04-20T00:40:43;98706.03;;;1.84;100.00
65897;BME280;52677;50.898;10.854;2023-04-20T00:42:47;98707.16;;;1.83;100.00
65897;BME280;52677;50.898;10.854;2023-04-20T00:44:48;98701.69;;;1.83;100.00
65897;BME280;52677;50.898;10.854;2023-04-20T00:46:49;98712.75;;;1.87;100.00
65897;BME280;52677;50.898;10.854;2023-04-20T00:48:53;98702.66;;;1.87;100.00
65897;BME280;52677;50.898;10.854;2023-04-20T00:50:53;98703.28;;;1.84;100.00
65897;BME280;52677;50.898;10.854;2023-04-20T00:52:54;98699.13;;;1.87;100.00
65897;BME280;52677;50.898;10.854;2023-04-20T00:54:54;98697.19;;;1.87;100.00
65897;BME280;52677;50.898;10.854;2023-04-20T00:56:55;98698.81;;;1.88;100.00
65897;BME280;52677;50.898;10.854;2023-04-20T00:58:57;98699.31;;;1.90;100.00
65897;BME280;52677;50.898;10.854;2023-04-20T01:00:57;98694.47;;;1.87;100.00
65897;BME280;52677;50.898;10.854;2023-04-20T01:02:57;98692.38;;;1.84;100.00
65897;BME280;52677;50.898;10.854;2023-04-20T01:04:58;98692.72;;;1.83;100.00
65897;BME280;52677;50.898;10.854;2023-04-20T01:06:58;98679.88;;;1.83;100.00
65897;BME280;52677;50.898;10.854;2023-04-20T01:08:59;98685.16;;;1.88;100.00
65897;BME280;52677;50.898;10.854;2023-04-20T01:10:59;98677.97;;;1.92;100.00
65897;BME280;52677;50.898;10.854;2023-04-20T01:12:59;98681.50;;;1.93;100.00
65897;BME280;52677;50.898;10.854;2023-04-20T01:15:03;98679.25;;;1.95;100.00
65897;BME280;52677;50.898;10.854;2023-04-20T01:17:05;98680.25;;;1.99;100.00
65897;BME280;52677;50.898;10.854;2023-04-20T01:19:05;98677.50;;;1.99;100.00
65897;BME280;52677;50.898;10.854;2023-04-20T01:21:06;98675.41;;;1.96;100.00
65897;BME280;52677;50.898;10.854;2023-04-20T01:23:06;98677.00;;;1.97;100.00
65897;BME280;52677;50.898;10.854;2023-04-20T01:25:07;98671.88;;;1.95;100.00
65897;BME280;52677;50.898;10.854;2023-04-20T01:27:07;98663.34;;;1.97;100.00
65897;BME280;52677;50.898;10.854;2023-04-20T01:29:08;98664.16;;;1.97;100.00
65897;BME280;52677;50.898;10.854;2023-04-20T01:31:09;98664.34;;;2.01;100.00
65897;BME280;52677;50.898;10.854;2023-04-20T01:33:10;98659.03;;;2.05;100.00
65897;BME280;52677;50.898;10.854;2023-04-20T01:35:10;98661.47;;;2.15;100.00
65897;BME280;52677;50.898;10.854;2023-04-20T01:37:11;98661.19;;;2.16;100.00
65897;BME280;52677;50.898;10.854;2023-04-20T01:39:11;98658.13;;;2.18;100.00
65897;BME280;52677;50.898;10.854;2023-04-20T01:41:11;98656.19;;;2.18;100.00
65897;BME280;52677;50.898;10.854;2023-04-20T01:43:12;98656.84;;;2.15;100.00
65897;BME280;52677;50.898;10.854;2023-04-20T01:45:13;98648.78;;;2.10;100.00
65897;BME280;52677;50.898;10.854;2023-04-20T01:47:13;98645.25;;;2.10;100.00
65897;BME280;52677;50.898;10.854;2023-04-20T01:49:13;98653.13;;;2.11;100.00
65897;BME280;52677;50.898;10.854;2023-04-20T01:51:14;98651.19;;;2.12;100.00
65897;BME280;52677;50.898;10.854;2023-04-20T01:53:14;98644.47;;;2.09;100.00
65897;BME280;52677;50.898;10.854;2023-04-20T01:55:15;98644.47;;;2.09;100.00
65897;BME280;52677;50.898;10.854;2023-04-20T01:57:15;98651.19;;;2.12;100.00
65897;BME280;52677;50.898;10.854;2023-04-20T01:59:15;98643.34;;;2.10;100.00
65897;BME280;52677;50.898;10.854;2023-04-20T02:01:16;98644.94;;;2.11;100.00
65897;BME280;52677;50.898;10.854;2023-04-20T02:03:16;98640.13;;;2.08;100.00
65897;BME280;52677;50.898;10.854;2023-04-20T02:05:17;98650.72;;;2.10;100.00
65897;BME280;52677;50.898;10.854;2023-04-20T02:07:17;98649.13;;;2.09;100.00
65897;BME280;52677;50.898;10.854;2023-04-20T02:09:17;98646.53;;;2.12;100.00
65897;BME280;52677;50.898;10.854;2023-04-20T02:11:17;98649.47;;;2.16;100.00
65897;BME280;52677;50.898;10.854;2023-04-20T02:13:18;98637.41;;;2.17;100.00
65897;BME280;52677;50.898;10.854;2023-04-20T02:15:18;98646.41;;;2.17;100.00
65897;BME280;52677;50.898;10.854;2023-04-20T02:17:19;98644.78;;;2.16;100.00
65897;BME280;52677;50.898;10.854;2023-04-20T02:19:19;98642.88;;;2.17;100.00
65897;BME280;52677;50.898;10.854;2023-04-20T02:21:20;98639.50;;;2.20;100.00
65897;BME280;52677;50.898;10.854;2023-04-20T02:23:20;98638.69;;;2.19;100.00
65897;BME280;52677;50.898;10.854;2023-04-20T02:25:21;98633.38;;;2.14;100.00
65897;BME280;52677;50.898;10.854;2023-04-20T02:27:21;98632.75;;;2.17;100.00
65897;BME280;52677;50.898;10.854;2023-04-20T02:29:21;98632.56;;;2.14;100.00
65897;BME280;52677;50.898;10.854;2023-04-20T02:31:22;98629.03;;;2.13;100.00
65897;BME280;52677;50.898;10.854;2023-04-20T02:33:22;98631.44;;;2.15;100.00
65897;BME280;52677;50.898;10.854;2023-04-20T02:35:22;98630.97;;;2.13;100.00
65897;BME280;52677;50.898;10.854;2023-04-20T02:37:23;98639.31;;;2.08;100.00
65897;BME280;52677;50.898;10.854;2023-04-20T02:39:23;98638.34;;;2.04;100.00
65897;BME280;52677;50.898;10.854;2023-04-20T02:41:23;98641.53;;;2.06;100.00
65897;BME280;52677;50.898;10.854;2023-04-20T02:43:24;98636.72;;;2.03;100.00
65897;BME280;52677;50.898;10.854;2023-04-20T02:45:24;98631.44;;;2.06;100.00
65897;BME280;52677;50.898;10.854;2023-04-20T02:47:25;98637.53;;;2.03;100.00
65897;BME280;52677;50.898;10.854;2023-04-20T02:49:25;98633.69;;;2.04;100.00
65897;BME280;52677;50.898;10.854;2023-04-20T02:51:25;98635.94;;;2.02;100.00
65897;BME280;52677;50.898;10.854;2023-04-20T02:53:26;98635.94;;;2.11;100.00
65897;BME280;52677;50.898;10.854;2023-04-20T02:55:26;98632.41;;;2.10;100.00
65897;BME280;52677;50.898;10.854;2023-04-20T02:57:26;98633.06;;;2.16;100.00
65897;BME280;52677;50.898;10.854;2023-04-20T02:59:27;98634.69;;;2.17;100.00
65897;BME280;52677;50.898;10.854;2023-04-20T03:01:27;98635.16;;;2.19;100.00
65897;BME280;52677;50.898;10.854;2023-04-20T03:03:27;98626.50;;;2.17;100.00
65897;BME280;52677;50.898;10.854;2023-04-20T03:05:28;98635.81;;;2.24;100.00
65897;BME280;52677;50.898;10.854;2023-04-20T03:07:28;98624.56;;;2.26;100.00
65897;BME280;52677;50.898;10.854;2023-04-20T03:09:28;98630.66;;;2.23;100.00
65897;BME280;52677;50.898;10.854;2023-04-20T03:11:29;98630.03;;;2.17;100.00
65897;BME280;52677;50.898;10.854;2023-04-20T03:13:30;98630.97;;;2.13;100.00
65897;BME280;52677;50.898;10.854;2023-04-20T03:15:30;98633.88;;;2.16;100.00
65897;BME280;52677;50.898;10.854;2023-04-20T03:17:31;98630.97;;;2.21;100.00
65897;BME280;52677;50.898;10.854;2023-04-20T03:19:31;98632.28;;;2.15;100.00
65897;BME280;52677;50.898;10.854;2023-04-20T03:21:31;98629.50;;;2.07;100.00
65897;BME280;52677;50.898;10.854;2023-04-20T03:23:32;98636.72;;;2.03;100.00
65897;BME280;52677;50.898;10.854;2023-04-20T03:25:32;98638.63;;;1.93;100.00
65897;BME280;52677;50.898;10.854;2023-04-20T03:27:32;98636.38;;;1.87;100.00
65897;BME280;52677;50.898;10.854;2023-04-20T03:29:33;98637.81;;;1.84;100.00
65897;BME280;52677;50.898;10.854;2023-04-20T03:31:33;98637.94;;;1.79;100.00
65897;BME280;52677;50.898;10.854;2023-04-20T03:33:34;98638.28;;;1.78;100.00
65897;BME280;52677;50.898;10.854;2023-04-20T03:35:34;98635.19;;;1.71;100.00
65897;BME280;52677;50.898;10.854;2023-04-20T03:37:38;98641.78;;;1.69;100.00
65897;BME280;52677;50.898;10.854;2023-04-20T03:39:38;98635.03;;;1.67;100.00
65897;BME280;52677;50.898;10.854;2023-04-20T03:41:38;98648.03;;;1.70;100.00
65897;BME280;52677;50.898;10.854;2023-04-20T03:43:39;98651.56;;;1.71;100.00
65897;BME280;52677;50.898;10.854;2023-04-20T03:45:40;98645.44;;;1.65;100.00
65897;BME280;52677;50.898;10.854;2023-04-20T03:47:41;98649.78;;;1.66;100.00
65897;BME280;52677;50.898;10.854;2023-04-20T03:49:41;98643.34;;;1.62;100.00
65897;BME280;52677;50.898;10.854;2023-04-20T03:51:42;98646.06;;;1.62;100.00
65897;BME280;52677;50.898;10.854;2023-04-20T03:53:42;98643.19;;;1.58;100.00
65897;BME280;52677;50.898;10.854;2023-04-20T03:55:42;98648.97;;;1.65;100.00
65897;BME280;52677;50.898;10.854;2023-04-20T03:57:43;98649.28;;;1.64;100.00
65897;BME280;52677;50.898;10.854;2023-04-20T03:59:43;98649.97;;;1.69;100.00
65897;BME280;52677;50.898;10.854;2023-04-20T04:01:43;98643.84;;;1.73;100.00
65897;BME280;52677;50.898;10.854;2023-04-20T04:03:43;98631.53;;;1.75;100.00
65897;BME280;52677;50.898;10.854;2023-04-20T04:05:44;98627.50;;;1.73;100.00
65897;BME280;52677;50.898;10.854;2023-04-20T04:07:44;98638.59;;;1.76;100.00
65897;BME280;52677;50.898;10.854;2023-04-20T04:09:45;98620.13;;;1.73;100.00
65897;BME280;52677;50.898;10.854;2023-04-20T04:11:45;98632.94;;;1.73;100.00
65897;BME280;52677;50.898;10.854;2023-04-20T04:13:45;98626.88;;;1.76;100.00
65897;BME280;52677;50.898;10.854;2023-04-20T04:15:46;98623.16;;;1.72;100.00
65897;BME280;52677;50.898;10.854;2023-04-20T04:17:47;98626.84;;;1.67;100.00
65897;BME280;52677;50.898;10.854;2023-04-20T04:19:47;98627.97;;;1.66;100.00
65897;BME280;52677;50.898;10.854;2023-04-20T04:21:47;98639.38;;;1.68;100.00
65897;BME280;52677;50.898;10.854;2023-04-20T04:23:48;98637.56;;;1.63;100.00
65897;BME280;52677;50.898;10.854;2023-04-20T04:25:48;98626.97;;;1.62;100.00
65897;BME280;52677;50.898;10.854;2023-04-20T04:27:49;98628.09;;;1.61;100.00
65897;BME280;52677;50.898;10.854;2023-04-20T04:29:50;98630.50;;;1.62;100.00
65897;BME280;52677;50.898;10.854;2023-04-20T04:31:51;98641.28;;;1.67;100.00
65897;BME280;52677;50.898;10.854;2023-04-20T04:33:52;98625.53;;;1.64;100.00
65897;BME280;52677;50.898;10.854;2023-04-20T04:35:52;98640.78;;;1.65;100.00
65897;BME280;52677;50.898;10.854;2023-04-20T04:37:52;98638.56;;;1.67;100.00
65897;BME280;52677;50.898;10.854;2023-04-20T04:39:53;98643.22;;;1.67;100.00
65897;BME280;52677;50.898;10.854;2023-04-20T04:41:53;98636.63;;;1.68;100.00
65897;BME280;52677;50.898;10.854;2023-04-20T04:43:53;98630.06;;;1.69;100.00
65897;BME280;52677;50.898;10.854;2023-04-20T04:45:54;98632.16;;;1.72;100.00
65897;BME280;52677;50.898;10.854;2023-04-20T04:47:54;98635.06;;;1.76;100.00
65897;BME280;52677;50.898;10.854;2023-04-20T04:49:56;98644.53;;;1.78;100.00
65897;BME280;52677;50.898;10.854;2023-04-20T04:51:56;98641.47;;;1.80;100.00
65897;BME280;52677;50.898;10.854;2023-04-20T04:53:56;98644.88;;;1.85;100.00
65897;BME280;52677;50.898;10.854;2023-04-20T04:55:57;98646.97;;;1.88;100.00
65897;BME280;52677;50.898;10.854;2023-04-20T04:57:57;98643.09;;;1.89;100.00
65897;BME280;52677;50.898;10.854;2023-04-20T04:59:58;98655.34;;;1.92;100.00
65897;BME280;52677;50.898;10.854;2023-04-20T05:01:58;98649.38;;;1.90;100.00
65897;BME280;52677;50.898;10.854;2023-04-20T05:03:59;98647.94;;;1.92;100.00
65897;BME280;52677;50.898;10.854;2023-04-20T05:05:59;98651.97;;;1.95;100.00
65897;BME280;52677;50.898;10.854;2023-04-20T05:08:00;98652.75;;;1.95;100.00
65897;BME280;52677;50.898;10.854;2023-04-20T05:10:01;98649.88;;;1.92;100.00
65897;BME280;52677;50.898;10.854;2023-04-20T05:12:01;98654.69;;;1.95;100.00
65897;BME280;52677;50.898;10.854;2023-04-20T05:14:02;98653.56;;;1.96;100.00
65897;BME280;52677;50.898;10.854;2023-04-20T05:16:03;98656.28;;;1.96;100.00
65897;BME280;52677;50.898;10.854;2023-04-20T05:18:03;98661.94;;;2.00;100.00
65897;BME280;52677;50.898;10.854;2023-04-20T05:20:05;98654.22;;;2.02;100.00
65897;BME280;52677;50.898;10.854;2023-04-20T05:22:06;98662.56;;;2.05;100.00
65897;BME280;52677;50.898;10.854;2023-04-20T05:24:06;98666.63;;;2.08;100.00
65897;BME280;52677;50.898;10.854;2023-04-20T05:26:07;98665.81;;;2.07;100.00
65897;BME280;52677;50.898;10.854;2023-04-20T05:28:07;98671.75;;;2.09;100.00
65897;BME280;52677;50.898;10.854;2023-04-20T05:30:07;98670.31;;;2.12;100.00
65897;BME280;52677;50.898;10.854;2023-04-20T05:32:08;98671.09;;;2.12;100.00
65897;BME280;52677;50.898;10.854;2023-04-20T05:34:08;98668.84;;;2.14;100.00
65897;BME280;52677;50.898;10.854;2023-04-20T05:36:08;98667.91;;;2.19;100.00
65897;BME280;52677;50.898;10.854;2023-04-20T05:38:09;98668.59;;;2.24;100.00
65897;BME280;52677;50.898;10.854;2023-04-20T05:40:11;98672.91;;;2.25;100.00
65897;BME280;52677;50.898;10.854;2023-04-20T05:42:11;98667.59;;;2.29;100.00
65897;BME280;52677;50.898;10.854;2023-04-20T05:44:12;98674.84;;;2.34;100.00
65897;BME280;52677;50.898;10.854;2023-04-20T05:46:12;98661.34;;;2.37;100.00
65897;BME280;52677;50.898;10.854;2023-04-20T05:48:13;98666.19;;;2.40;100.00
65897;BME280;52677;50.898;10.854;2023-04-20T05:50:13;98673.75;;;2.43;100.00
65897;BME280;52677;50.898;10.854;2023-04-20T05:52:13;98673.88;;;2.47;100.00
65897;BME280;52677;50.898;10.854;2023-04-20T05:54:14;98676.31;;;2.48;100.00
65897;BME280;52677;50.898;10.854;2023-04-20T05:56:14;98675.69;;;2.51;100.00
65897;BME280;52677;50.898;10.854;2023-04-20T05:58:15;98676.63;;;2.56;100.00
65897;BME280;52677;50.898;10.854;2023-04-20T06:00:16;98674.41;;;2.58;100.00
65897;BME280;52677;50.898;10.854;2023-04-20T06:02:16;98678.88;;;2.62;100.00
65897;BME280;52677;50.898;10.854;2023-04-20T06:04:17;98679.38;;;2.64;100.00
65897;BME280;52677;50.898;10.854;2023-04-20T06:06:17;98684.69;;;2.69;100.00
65897;BME280;52677;50.898;10.854;2023-04-20T06:08:18;98677.63;;;2.68;100.00
65897;BME280;52677;50.898;10.854;2023-04-20T06:10:18;98672.81;;;2.65;100.00
65897;BME280;52677;50.898;10.854;2023-04-20T06:12:18;98681.28;;;2.72;100.00
65897;BME280;52677;50.898;10.854;2023-04-20T06:14:19;98667.81;;;2.67;100.00
65897;BME280;52677;50.898;10.854;2023-04-20T06:16:19;98672.94;;;2.69;100.00
65897;BME280;52677;50.898;10.854;2023-04-20T06:18:19;98678.56;;;2.72;100.00
65897;BME280;52677;50.898;10.854;2023-04-20T06:20:20;98677.28;;;2.70;100.00
65897;BME280;52677;50.898;10.854;2023-04-20T06:22:21;98681.63;;;2.79;100.00
65897;BME280;52677;50.898;10.854;2023-04-20T06:24:21;98690.63;;;2.80;100.00
65897;BME280;52677;50.898;10.854;2023-04-20T06:26:22;98683.56;;;2.79;100.00
65897;BME280;52677;50.898;10.854;2023-04-20T06:28:22;98701.72;;;2.84;100.00
65897;BME280;52677;50.898;10.854;2023-04-20T06:30:22;98692.22;;;2.81;100.00
65897;BME280;52677;50.898;10.854;2023-04-20T06:32:23;98694.00;;;2.86;100.00
65897;BME280;52677;50.898;10.854;2023-04-20T06:34:23;98684.19;;;2.85;100.00
65897;BME280;52677;50.898;10.854;2023-04-20T06:36:23;98692.53;;;2.88;100.00
65897;BME280;52677;50.898;10.854;2023-04-20T06:38:24;98695.59;;;2.95;100.00
65897;BME280;52677;50.898;10.854;2023-04-20T06:40:27;98694.97;;;2.98;100.00
65897;BME280;52677;50.898;10.854;2023-04-20T06:42:28;98697.53;;;3.03;100.00
65897;BME280;52677;50.898;10.854;2023-04-20T06:44:28;98700.72;;;3.05;100.00
65897;BME280;52677;50.898;10.854;2023-04-20T06:46:29;98697.03;;;3.10;100.00
65897;BME280;52677;50.898;10.854;2023-04-20T06:48:29;98702.66;;;3.14;100.00
65897;BME280;52677;50.898;10.854;2023-04-20T06:50:30;98694.31;;;3.19;100.00
65897;BME280;52677;50.898;10.854;2023-04-20T06:52:30;98691.41;;;3.24;100.00
65897;BME280;52677;50.898;10.854;2023-04-20T06:54:31;98707.63;;;3.29;100.00
65897;BME280;52677;50.898;10.854;2023-04-20T06:56:31;98702.34;;;3.32;100.00
65897;BME280;52677;50.898;10.854;2023-04-20T06:58:32;98713.91;;;3.29;100.00
65897;BME280;52677;50.898;10.854;2023-04-20T07:00:32;98712.47;;;3.32;100.00
65897;BME280;52677;50.898;10.854;2023-04-20T07:02:47;98714.22;;;3.36;100.00
65897;BME280;52677;50.898;10.854;2023-04-20T07:04:47;98710.00;;;3.39;100.00
65897;BME280;52677;50.898;10.854;2023-04-20T07:06:48;98713.25;;;3.41;100.00
65897;BME280;52677;50.898;10.854;2023-04-20T07:08:48;98711.13;;;3.47;100.00
65897;BME280;52677;50.898;10.854;2023-04-20T07:10:49;98714.03;;;3.50;100.00
65897;BME280;52677;50.898;10.854;2023-04-20T07:12:49;98715.31;;;3.53;100.00
65897;BME280;52677;50.898;10.854;2023-04-20T07:14:50;98710.63;;;3.53;100.00
65897;BME280;52677;50.898;10.854;2023-04-20T07:16:53;98713.38;;;3.53;100.00
65897;BME280;52677;50.898;10.854;2023-04-20T07:18:53;98710.31;;;3.55;100.00
65897;BME280;52677;50.898;10.854;2023-04-20T07:20:54;98707.91;;;3.53;100.00
65897;BME280;52677;50.898;10.854;2023-04-20T07:22:54;98713.03;;;3.55;100.00
65897;BME280;52677;50.898;10.854;2023-04-20T07:24:55;98699.69;;;3.53;100.00
65897;BME280;52677;50.898;10.854;2023-04-20T07:26:55;98697.94;;;3.57;100.00
65897;BME280;52677;50.898;10.854;2023-04-20T07:28:56;98707.41;;;3.60;100.00
65897;BME280;52677;50.898;10.854;2023-04-20T07:30:56;98707.72;;;3.67;100.00
65897;BME280;52677;50.898;10.854;2023-04-20T07:32:56;98704.47;;;3.74;100.00
65897;BME280;52677;50.898;10.854;2023-04-20T07:34:57;98707.66;;;3.84;100.00
65897;BME280;52677;50.898;10.854;2023-04-20T07:36:57;98707.91;;;4.00;100.00
65897;BME280;52677;50.898;10.854;2023-04-20T07:38:57;98705.47;;;4.07;100.00
65897;BME280;52677;50.898;10.854;2023-04-20T07:40:58;98711.53;;;4.13;100.00
65897;BME280;52677;50.898;10.854;2023-04-20T07:42:58;98710.69;;;4.21;100.00
65897;BME280;52677;50.898;10.854;2023-04-20T07:44:59;98712.44;;;4.26;100.00
65897;BME280;52677;50.898;10.854;2023-04-20T07:46:59;98715.81;;;4.31;100.00
65897;BME280;52677;50.898;10.854;2023-04-20T07:48:59;98718.00;;;4.38;100.00
65897;BME280;52677;50.898;10.854;2023-04-20T07:51:00;98713.31;;;4.38;100.00
65897;BME280;52677;50.898;10.854;2023-04-20T07:53:00;98707.34;;;4.45;100.00
65897;BME280;52677;50.898;10.854;2023-04-20T07:55:01;98711.63;;;4.55;100.00
65897;BME280;52677;50.898;10.854;2023-04-20T07:57:02;98713.84;;;4.61;100.00
65897;BME280;52677;50.898;10.854;2023-04-20T07:59:02;98710.50;;;4.76;100.00
65897;BME280;52677;50.898;10.854;2023-04-20T08:01:03;98713.34;;;4.89;100.00
65897;BME280;52677;50.898;10.854;2023-04-20T08:03:04;98703.41;;;4.96;100.00
65897;BME280;52677;50.898;10.854;2023-04-20T08:05:04;98705.63;;;5.03;100.00
65897;BME280;52677;50.898;10.854;2023-04-20T08:07:05;98705.75;;;5.06;100.00
65897;BME280;52677;50.898;10.854;2023-04-20T08:09:05;98699.59;;;5.10;100.00
65897;BME280;52677;50.898;10.854;2023-04-20T08:11:06;98702.13;;;5.15;100.00
65897;BME280;52677;50.898;10.854;2023-04-20T08:13:07;98705.69;;;5.15;100.00
65897;BME280;52677;50.898;10.854;2023-04-20T08:15:08;98698.72;;;5.18;100.00
65897;BME280;52677;50.898;10.854;2023-04-20T08:17:08;98704.88;;;5.15;100.00
65897;BME280;52677;50.898;10.854;2023-04-20T08:19:09;98704.41;;;5.13;100.00
65897;BME280;52677;50.898;10.854;2023-04-20T08:21:09;98706.81;;;5.14;100.00
65897;BME280;52677;50.898;10.854;2023-04-20T08:23:09;98701.34;;;5.14;100.00
65897;BME280;52677;50.898;10.854;2023-04-20T08:25:10;98705.53;;;5.12;100.00
65897;BME280;52677;50.898;10.854;2023-04-20T08:27:10;98712.63;;;5.13;100.00
65897;BME280;52677;50.898;10.854;2023-04-20T08:29:10;98709.06;;;5.12;100.00
65897;BME280;52677;50.898;10.854;2023-04-20T08:31:11;98704.47;;;5.04;100.00
65897;BME280;52677;50.898;10.854;2023-04-20T08:33:14;98708.56;;;4.98;100.00
65897;BME280;52677;50.898;10.854;2023-04-20T08:35:14;98704.63;;;4.87;100.00
65897;BME280;52677;50.898;10.854;2023-04-20T08:37:15;98720.88;;;4.92;100.00
65897;BME280;52677;50.898;10.854;2023-04-20T08:39:18;98710.59;;;4.89;100.00
65897;BME280;52677;50.898;10.854;2023-04-20T08:41:19;98712.53;;;4.88;100.00
65897;BME280;52677;50.898;10.854;2023-04-20T08:43:20;98706.38;;;4.91;100.00
65897;BME280;52677;50.898;10.854;2023-04-20T08:45:21;98704.69;;;4.99;100.00
65897;BME280;52677;50.898;10.854;2023-04-20T08:47:22;98699.78;;;5.04;100.00
65897;BME280;52677;50.898;10.854;2023-04-20T08:49:25;98697.78;;;5.14;100.00
65897;BME280;52677;50.898;10.854;2023-04-20T08:51:26;98708.09;;;5.17;100.00
65897;BME280;52677;50.898;10.854;2023-04-20T08:53:27;98712.78;;;5.16;100.00
65897;BME280;52677;50.898;10.854;2023-04-20T08:55:27;98702.41;;;5.01;100.00
65897;BME280;52677;50.898;10.854;2023-04-20T08:57:27;98715.72;;;4.90;100.00
65897;BME280;52677;50.898;10.854;2023-04-20T08:59:29;98716.13;;;4.80;100.00
65897;BME280;52677;50.898;10.854;2023-04-20T09:01:31;98711.78;;;4.79;100.00
65897;BME280;52677;50.898;10.854;2023-04-20T09:03:39;98709.81;;;4.79;100.00
65897;BME280;52677;50.898;10.854;2023-04-20T09:05:43;98691.78;;;4.78;100.00
65897;BME280;52677;50.898;10.854;2023-04-20T09:07:50;98704.97;;;4.85;100.00
65897;BME280;52677;50.898;10.854;2023-04-20T09:09:53;98700.19;;;4.94;100.00
65897;BME280;52677;50.898;10.854;2023-04-20T09:12:10;98704.09;;;5.14;100.00
65897;BME280;52677;50.898;10.854;2023-04-20T09:14:13;98702.22;;;5.39;100.00
65897;BME280;52677;50.898;10.854;2023-04-20T09:16:13;98706.06;;;5.59;100.00
65897;BME280;52677;50.898;10.854;2023-04-20T09:18:14;98706.53;;;5.73;100.00
65897;BME280;52677;50.898;10.854;2023-04-20T09:20:15;98693.44;;;5.91;100.00
65897;BME280;52677;50.898;10.854;2023-04-20T09:22:15;98698.47;;;6.01;100.00
65897;BME280;52677;50.898;10.854;2023-04-20T09:24:15;98692.75;;;6.18;100.00
65897;BME280;52677;50.898;10.854;2023-04-20T09:26:17;98688.06;;;6.31;100.00
65897;BME280;52677;50.898;10.854;2023-04-20T09:28:18;98690.03;;;6.31;100.00
65897;BME280;52677;50.898;10.854;2023-04-20T09:30:18;98688.75;;;6.40;100.00
65897;BME280;52677;50.898;10.854;2023-04-20T09:32:23;98695.84;;;6.41;100.00
65897;BME280;52677;50.898;10.854;2023-04-20T09:34:24;98692.66;;;6.39;100.00
65897;BME280;52677;50.898;10.854;2023-04-20T09:36:34;98688.84;;;6.44;100.00
65897;BME280;52677;50.898;10.854;2023-04-20T09:38:35;98688.41;;;6.42;100.00
65897;BME280;52677;50.898;10.854;2023-04-20T09:40:36;98690.91;;;6.35;100.00
65897;BME280;52677;50.898;10.854;2023-04-20T09:42:38;98691.84;;;6.27;100.00
65897;BME280;52677;50.898;10.854;2023-04-20T09:44:39;98686.78;;;6.29;100.00
65897;BME280;52677;50.898;10.854;2023-04-20T09:46:40;98680.84;;;6.27;100.00
65897;BME280;52677;50.898;10.854;2023-04-20T09:48:41;98686.00;;;6.16;100.00
65897;BME280;52677;50.898;10.854;2023-04-20T09:50:41;98690.69;;;6.03;100.00
65897;BME280;52677;50.898;10.854;2023-04-20T09:52:42;98677.75;;;6.04;100.00
65897;BME280;52677;50.898;10.854;2023-04-20T09:54:43;98678.91;;;6.15;100.00
65897;BME280;52677;50.898;10.854;2023-04-20T09:56:44;98681.09;;;6.22;100.00
65897;BME280;52677;50.898;10.854;2023-04-20T09:58:45;98680.28;;;6.33;100.00
65897;BME280;52677;50.898;10.854;2023-04-20T10:00:46;98667.66;;;6.44;100.00
65897;BME280;52677;50.898;10.854;2023-04-20T10:02:46;98670.88;;;6.46;100.00
65897;BME280;52677;50.898;10.854;2023-04-20T10:04:59;98670.03;;;6.58;100.00
65897;BME280;52677;50.898;10.854;2023-04-20T10:07:02;98665.56;;;6.66;100.00
65897;BME280;52677;50.898;10.854;2023-04-20T10:09:05;98669.91;;;6.67;100.00
65897;BME280;52677;50.898;10.854;2023-04-20T10:11:06;98663.63;;;6.66;100.00
65897;BME280;52677;50.898;10.854;2023-04-20T10:13:07;98665.13;;;6.64;100.00
65897;BME280;52677;50.898;10.854;2023-04-20T10:15:07;98656.88;;;6.64;100.00
65897;BME280;52677;50.898;10.854;2023-04-20T10:17:08;98656.97;;;6.67;100.00
65897;BME280;52677;50.898;10.854;2023-04-20T10:19:10;98672.06;;;6.73;100.00
65897;BME280;52677;50.898;10.854;2023-04-20T10:21:10;98664.56;;;6.86;100.00
65897;BME280;52677;50.898;10.854;2023-04-20T10:23:12;98659.84;;;6.99;100.00
65897;BME280;52677;50.898;10.854;2023-04-20T10:25:24;98656.44;;;6.90;100.00
65897;BME280;52677;50.898;10.854;2023-04-20T10:27:26;98662.16;;;6.97;100.00
65897;BME280;52677;50.898;10.854;2023-04-20T10:29:27;98650.09;;;7.01;100.00
65897;BME280;52677;50.898;10.854;2023-04-20T10:31:35;98652.94;;;7.05;100.00